Oriximina, Brazil
Current Conditions -  °F | °C
As of 6:00 PM on Monday 20 Oct 2014 (Local Time) from SBSN Reporting Station
Clear Clear  
Wind Chill: 82°   Ceiling: Unl
Heat Index: 87°   Visibility: 6mi
Dew Point: 72°   Wind: 2mph
Humidity: 70%   Direction: 30°NNE
Pressure: 29.74"   Gusts: NA
Location:  1.76°S, 55.87°W
Report Text: SBSN 202200Z 03002KT CAVOK 28/22 Q1007
Loading
Personal Weather Stations






























Interactive Weather Map
Tropical Storm Tracking
New forecast layout! Learn more

10-Day Weather Forecast

Advertisements
Track Severe Weather on mobile